Meadowbrook, West Virginia
Current Conditions -  °F | °C
As of 3:53 AM on Wednesday 22 Oct 2014 (Local Time) from KCKB Reporting Station
Overcast Overcast  
Wind Chill: 42°   Ceiling: 900
Heat Index: 46°   Visibility: 10mi
Dew Point: 44°   Wind: 7mph
Humidity: 93%   Direction: 290°WNW
Pressure: 30.03"   Gusts: NA
Location:  39.35°N, 80.31°W
Report Text: KCKB 220753Z AUTO 29006KT 10SM OVC009 08/07 A3003 RMK AO2 CIG 008V012 SLP167 T00780067 TSNO $
Loading
Personal Weather Stations






























Interactive Weather Map
Tropical Storm Tracking
New forecast layout! Learn more

10-Day Weather Forecast

Advertisements
Track Severe Weather on mobile